sensor_id;sensor_type;location;lat;lon;timestamp;pressure;altitude;pressure_sealevel;temperature;humidity
80837;BME280;70251;60.008;30.404;2023-12-14T00:01:20;100761.44;;;1.07;65.40
80837;BME280;70251;60.008;30.404;2023-12-14T00:03:45;100767.41;;;1.11;65.40
80837;BME280;70251;60.008;30.404;2023-12-14T00:06:12;100764.78;;;1.11;65.10
80837;BME280;70251;60.008;30.404;2023-12-14T00:08:38;100773.44;;;1.13;65.24
80837;BME280;70251;60.008;30.404;2023-12-14T00:11:13;100770.66;;;1.16;65.24
80837;BME280;70251;60.008;30.404;2023-12-14T00:13:39;100777.06;;;1.10;65.20
80837;BME280;70251;60.008;30.404;2023-12-14T00:16:05;100779.22;;;1.02;64.58
80837;BME280;70251;60.008;30.404;2023-12-14T00:18:51;100780.97;;;1.02;65.12
80837;BME280;70251;60.008;30.404;2023-12-14T00:21:17;100777.63;;;0.98;64.93
80837;BME280;70251;60.008;30.404;2023-12-14T00:23:42;100782.81;;;1.00;65.10
80837;BME280;70251;60.008;30.404;2023-12-14T00:26:08;100792.34;;;1.02;65.15
80837;BME280;70251;60.008;30.404;2023-12-14T00:28:34;100790.41;;;1.06;64.83
80837;BME280;70251;60.008;30.404;2023-12-14T00:31:00;100793.81;;;1.08;64.90
80837;BME280;70251;60.008;30.404;2023-12-14T00:33:25;100793.81;;;1.08;64.58
80837;BME280;70251;60.008;30.404;2023-12-14T00:35:51;100795.38;;;1.12;64.44
80837;BME280;70251;60.008;30.404;2023-12-14T00:38:17;100799.06;;;1.08;64.53
80837;BME280;70251;60.008;30.404;2023-12-14T00:40:42;100805.59;;;0.99;64.55
80837;BME280;70251;60.008;30.404;2023-12-14T00:43:08;100794.63;;;0.91;64.74
80837;BME280;70251;60.008;30.404;2023-12-14T00:45:34;100799.09;;;0.89;64.83
80837;BME280;70251;60.008;30.404;2023-12-14T00:48:00;100801.75;;;0.88;64.67
80837;BME280;70251;60.008;30.404;2023-12-14T00:50:25;100807.00;;;0.88;64.75
80837;BME280;70251;60.008;30.404;2023-12-14T00:52:51;100796.69;;;0.85;64.32
80837;BME280;70251;60.008;30.404;2023-12-14T00:55:17;100799.50;;;0.80;65.01
80837;BME280;70251;60.008;30.404;2023-12-14T00:57:42;100795.41;;;0.74;64.56
80837;BME280;70251;60.008;30.404;2023-12-14T01:00:08;100794.75;;;0.69;64.73
80837;BME280;70251;60.008;30.404;2023-12-14T01:02:36;100802.75;;;0.66;65.18
80837;BME280;70251;60.008;30.404;2023-12-14T01:05:02;100793.03;;;0.68;64.96
80837;BME280;70251;60.008;30.404;2023-12-14T01:07:29;100797.31;;;0.71;64.92
80837;BME280;70251;60.008;30.404;2023-12-14T01:09:54;100801.94;;;0.66;64.42
80837;BME280;70251;60.008;30.404;2023-12-14T01:12:20;100799.81;;;0.55;64.27
80837;BME280;70251;60.008;30.404;2023-12-14T01:14:46;100805.50;;;0.45;64.66
80837;BME280;70251;60.008;30.404;2023-12-14T01:17:11;100810.91;;;0.42;64.92
80837;BME280;70251;60.008;30.404;2023-12-14T01:19:40;100808.13;;;0.45;64.77
80837;BME280;70251;60.008;30.404;2023-12-14T01:22:06;100803.47;;;0.51;65.19
80837;BME280;70251;60.008;30.404;2023-12-14T01:24:32;100806.81;;;0.55;64.86
80837;BME280;70251;60.008;30.404;2023-12-14T01:26:58;100814.47;;;0.59;64.79
80837;BME280;70251;60.008;30.404;2023-12-14T01:29:25;100810.00;;;0.61;64.74
80837;BME280;70251;60.008;30.404;2023-12-14T01:31:50;100813.53;;;0.60;64.43
80837;BME280;70251;60.008;30.404;2023-12-14T01:34:16;100808.50;;;0.56;64.72
80837;BME280;70251;60.008;30.404;2023-12-14T01:36:42;100812.09;;;0.53;65.07
80837;BME280;70251;60.008;30.404;2023-12-14T01:39:07;100810.28;;;0.55;64.59
80837;BME280;70251;60.008;30.404;2023-12-14T01:41:33;100811.84;;;0.59;65.03
80837;BME280;70251;60.008;30.404;2023-12-14T01:43:59;100804.81;;;0.60;64.74
80837;BME280;70251;60.008;30.404;2023-12-14T01:46:24;100811.84;;;0.59;65.02
80837;BME280;70251;60.008;30.404;2023-12-14T01:48:50;100825.59;;;0.64;64.60
80837;BME280;70251;60.008;30.404;2023-12-14T01:51:18;100818.50;;;0.66;64.72
80837;BME280;70251;60.008;30.404;2023-12-14T01:53:44;100820.22;;;0.67;64.38
80837;BME280;70251;60.008;30.404;2023-12-14T01:56:10;100819.25;;;0.70;64.41
80837;BME280;70251;60.008;30.404;2023-12-14T01:58:36;100813.91;;;0.71;64.26
80837;BME280;70251;60.008;30.404;2023-12-14T02:01:17;100820.22;;;0.67;64.16
80837;BME280;70251;60.008;30.404;2023-12-14T02:03:46;100816.94;;;0.62;64.46
80837;BME280;70251;60.008;30.404;2023-12-14T02:06:11;100809.72;;;0.67;64.61
80837;BME280;70251;60.008;30.404;2023-12-14T02:08:37;100814.03;;;0.68;64.35
80837;BME280;70251;60.008;30.404;2023-12-14T02:11:03;100810.59;;;0.68;64.67
80837;BME280;70251;60.008;30.404;2023-12-14T02:13:29;100818.38;;;0.69;64.66
80837;BME280;70251;60.008;30.404;2023-12-14T02:15:55;100816.66;;;0.68;64.06
80837;BME280;70251;60.008;30.404;2023-12-14T02:18:21;100818.50;;;0.66;64.40
80837;BME280;70251;60.008;30.404;2023-12-14T02:20:47;100821.13;;;0.66;64.61
80837;BME280;70251;60.008;30.404;2023-12-14T02:23:12;100817.59;;;0.67;64.64
80837;BME280;70251;60.008;30.404;2023-12-14T02:25:38;100810.78;;;0.63;64.23
80837;BME280;70251;60.008;30.404;2023-12-14T02:28:04;100817.09;;;0.59;64.45
80837;BME280;70251;60.008;30.404;2023-12-14T02:30:30;100821.50;;;0.59;64.94
80837;BME280;70251;60.008;30.404;2023-12-14T02:32:56;100816.94;;;0.62;64.64
80837;BME280;70251;60.008;30.404;2023-12-14T02:35:21;100811.69;;;0.62;64.84
80837;BME280;70251;60.008;30.404;2023-12-14T02:37:48;100816.88;;;0.64;64.60
80837;BME280;70251;60.008;30.404;2023-12-14T02:40:14;100815.97;;;0.65;64.45
80837;BME280;70251;60.008;30.404;2023-12-14T02:42:41;100808.94;;;0.65;64.66
80837;BME280;70251;60.008;30.404;2023-12-14T02:45:10;100808.09;;;0.65;64.23
80837;BME280;70251;60.008;30.404;2023-12-14T02:47:35;100809.00;;;0.64;64.02
80837;BME280;70251;60.008;30.404;2023-12-14T02:50:01;100817.94;;;0.60;64.53
80837;BME280;70251;60.008;30.404;2023-12-14T02:52:29;100819.00;;;0.56;63.87
80837;BME280;70251;60.008;30.404;2023-12-14T02:54:55;100816.81;;;0.47;63.82
80837;BME280;70251;60.008;30.404;2023-12-14T02:57:20;100814.50;;;0.39;64.12
80837;BME280;70251;60.008;30.404;2023-12-14T02:59:46;100821.59;;;0.37;65.12
80837;BME280;70251;60.008;30.404;2023-12-14T03:02:12;100819.75;;;0.39;65.03
80837;BME280;70251;60.008;30.404;2023-12-14T03:04:38;100825.00;;;0.39;63.96
80837;BME280;70251;60.008;30.404;2023-12-14T03:07:05;100825.13;;;0.36;64.68
80837;BME280;70251;60.008;30.404;2023-12-14T03:09:31;100820.75;;;0.37;64.40
80837;BME280;70251;60.008;30.404;2023-12-14T03:11:57;100836.38;;;0.40;64.65
80837;BME280;70251;60.008;30.404;2023-12-14T03:14:23;100833.84;;;0.37;64.61
80837;BME280;70251;60.008;30.404;2023-12-14T03:16:48;100835.56;;;0.38;64.93
80837;BME280;70251;60.008;30.404;2023-12-14T03:19:28;100843.38;;;0.39;64.72
80837;BME280;70251;60.008;30.404;2023-12-14T03:21:54;100842.00;;;0.31;64.21
80837;BME280;70251;60.008;30.404;2023-12-14T03:24:20;100847.72;;;0.20;64.51
80837;BME280;70251;60.008;30.404;2023-12-14T03:26:46;100839.84;;;0.20;64.80
80837;BME280;70251;60.008;30.404;2023-12-14T03:29:22;100839.56;;;0.26;64.74
80837;BME280;70251;60.008;30.404;2023-12-14T03:31:48;100838.25;;;0.36;64.95
80837;BME280;70251;60.008;30.404;2023-12-14T03:34:13;100842.47;;;0.40;64.65
80837;BME280;70251;60.008;30.404;2023-12-14T03:36:39;100838.91;;;0.41;64.33
80837;BME280;70251;60.008;30.404;2023-12-14T03:39:36;100837.34;;;0.37;64.43
80837;BME280;70251;60.008;30.404;2023-12-14T03:42:01;100844.69;;;0.29;64.59
80837;BME280;70251;60.008;30.404;2023-12-14T03:44:27;100846.38;;;0.30;64.39
80837;BME280;70251;60.008;30.404;2023-12-14T03:46:53;100842.00;;;0.31;64.95
80837;BME280;70251;60.008;30.404;2023-12-14T03:49:19;100848.75;;;0.36;64.78
80837;BME280;70251;60.008;30.404;2023-12-14T03:51:45;100841.59;;;0.40;64.83
80837;BME280;70251;60.008;30.404;2023-12-14T03:54:11;100848.63;;;0.39;64.30
80837;BME280;70251;60.008;30.404;2023-12-14T03:56:36;100845.59;;;0.28;64.09
80837;BME280;70251;60.008;30.404;2023-12-14T03:59:03;100836.06;;;0.27;64.47
80837;BME280;70251;60.008;30.404;2023-12-14T04:01:28;100844.81;;;0.26;64.36
80837;BME280;70251;60.008;30.404;2023-12-14T04:03:54;100850.03;;;0.28;64.70
80837;BME280;70251;60.008;30.404;2023-12-14T04:06:19;100852.50;;;0.31;64.78
80837;BME280;70251;60.008;30.404;2023-12-14T04:08:45;100855.19;;;0.29;64.14
80837;BME280;70251;60.008;30.404;2023-12-14T04:11:11;100851.59;;;0.32;64.64
80837;BME280;70251;60.008;30.404;2023-12-14T04:13:38;100849.78;;;0.32;64.07
80837;BME280;70251;60.008;30.404;2023-12-14T04:16:04;100848.22;;;0.28;63.99
80837;BME280;70251;60.008;30.404;2023-12-14T04:18:30;100849.16;;;0.27;64.13
80837;BME280;70251;60.008;30.404;2023-12-14T04:20:56;100853.66;;;0.24;64.55
80837;BME280;70251;60.008;30.404;2023-12-14T04:23:22;100859.69;;;0.26;64.12
80837;BME280;70251;60.008;30.404;2023-12-14T04:25:47;100856.06;;;0.30;64.87
80837;BME280;70251;60.008;30.404;2023-12-14T04:28:13;100856.59;;;0.36;64.78
80837;BME280;70251;60.008;30.404;2023-12-14T04:30:39;100859.00;;;0.42;64.63
80837;BME280;70251;60.008;30.404;2023-12-14T04:33:04;100861.34;;;0.48;64.35
80837;BME280;70251;60.008;30.404;2023-12-14T04:35:30;100865.66;;;0.49;64.46
80837;BME280;70251;60.008;30.404;2023-12-14T04:37:56;100857.94;;;0.46;64.76
80837;BME280;70251;60.008;30.404;2023-12-14T04:40:22;100858.13;;;0.42;64.65
80837;BME280;70251;60.008;30.404;2023-12-14T04:42:48;100863.56;;;0.37;64.10
80837;BME280;70251;60.008;30.404;2023-12-14T04:45:13;100871.38;;;0.39;64.73
80837;BME280;70251;60.008;30.404;2023-12-14T04:47:39;100865.22;;;0.40;64.13
80837;BME280;70251;60.008;30.404;2023-12-14T04:50:05;100872.22;;;0.39;64.41
80837;BME280;70251;60.008;30.404;2023-12-14T04:52:31;100861.94;;;0.35;64.71
80837;BME280;70251;60.008;30.404;2023-12-14T04:54:57;100868.81;;;0.37;64.15
80837;BME280;70251;60.008;30.404;2023-12-14T04:57:23;100872.22;;;0.39;64.72
80837;BME280;70251;60.008;30.404;2023-12-14T04:59:49;100877.34;;;0.42;64.39
80837;BME280;70251;60.008;30.404;2023-12-14T05:02:14;100876.41;;;0.43;64.50
80837;BME280;70251;60.008;30.404;2023-12-14T05:04:40;100876.41;;;0.43;64.38
80837;BME280;70251;60.008;30.404;2023-12-14T05:07:06;100872.34;;;0.36;64.38
80837;BME280;70251;60.008;30.404;2023-12-14T05:09:31;100874.19;;;0.34;64.24
80837;BME280;70251;60.008;30.404;2023-12-14T05:11:57;100873.38;;;0.34;64.09
80837;BME280;70251;60.008;30.404;2023-12-14T05:14:23;100871.66;;;0.33;64.65
80837;BME280;70251;60.008;30.404;2023-12-14T05:16:49;100878.13;;;0.24;63.85
80837;BME280;70251;60.008;30.404;2023-12-14T05:19:15;100878.41;;;0.18;64.29
80837;BME280;70251;60.008;30.404;2023-12-14T05:21:40;100888.03;;;0.18;64.53
80837;BME280;70251;60.008;30.404;2023-12-14T05:24:07;100881.22;;;0.14;64.70
80837;BME280;70251;60.008;30.404;2023-12-14T05:26:33;100880.25;;;0.16;64.54
80837;BME280;70251;60.008;30.404;2023-12-14T05:28:58;100879.31;;;0.17;64.06
80837;BME280;70251;60.008;30.404;2023-12-14T05:31:24;100895.78;;;0.21;64.65
80837;BME280;70251;60.008;30.404;2023-12-14T05:33:50;100885.09;;;0.25;64.70
80837;BME280;70251;60.008;30.404;2023-12-14T05:36:16;100889.22;;;0.31;64.14
80837;BME280;70251;60.008;30.404;2023-12-14T05:38:42;100890.88;;;0.33;64.23
80837;BME280;70251;60.008;30.404;2023-12-14T05:41:08;100881.44;;;0.29;64.42
80837;BME280;70251;60.008;30.404;2023-12-14T05:43:34;100884.94;;;0.28;63.97
80837;BME280;70251;60.008;30.404;2023-12-14T05:45:59;100893.59;;;0.30;63.91
80837;BME280;70251;60.008;30.404;2023-12-14T05:48:25;100891.06;;;0.29;64.22
80837;BME280;70251;60.008;30.404;2023-12-14T05:50:54;100896.38;;;0.27;64.34
80837;BME280;70251;60.008;30.404;2023-12-14T05:53:19;100899.00;;;0.27;63.67
80837;BME280;70251;60.008;30.404;2023-12-14T05:55:45;100906.28;;;0.21;64.37
80837;BME280;70251;60.008;30.404;2023-12-14T05:58:11;100904.63;;;0.18;64.33
80837;BME280;70251;60.008;30.404;2023-12-14T06:00:37;100909.03;;;0.18;64.42
80837;BME280;70251;60.008;30.404;2023-12-14T06:03:03;100911.59;;;0.19;64.07
80837;BME280;70251;60.008;30.404;2023-12-14T06:05:29;100910.66;;;0.20;64.53
80837;BME280;70251;60.008;30.404;2023-12-14T06:07:55;100919.41;;;0.21;64.37
80837;BME280;70251;60.008;30.404;2023-12-14T06:10:21;100920.09;;;0.24;64.37
80837;BME280;70251;60.008;30.404;2023-12-14T06:12:52;100917.56;;;0.23;63.82
80837;BME280;70251;60.008;30.404;2023-12-14T06:15:17;100927.06;;;0.25;64.12
80837;BME280;70251;60.008;30.404;2023-12-14T06:17:43;100925.28;;;0.26;64.46
80837;BME280;70251;60.008;30.404;2023-12-14T06:20:09;100920.91;;;0.26;63.91
80837;BME280;70251;60.008;30.404;2023-12-14T06:22:36;100927.88;;;0.27;63.92
80837;BME280;70251;60.008;30.404;2023-12-14T06:25:03;100928.72;;;0.28;63.81
80837;BME280;70251;60.008;30.404;2023-12-14T06:27:30;100930.47;;;0.27;63.97
80837;BME280;70251;60.008;30.404;2023-12-14T06:29:57;100934.16;;;0.23;63.92
80837;BME280;70251;60.008;30.404;2023-12-14T06:32:23;100937.59;;;0.24;64.32
80837;BME280;70251;60.008;30.404;2023-12-14T06:34:49;100930.75;;;0.21;63.78
80837;BME280;70251;60.008;30.404;2023-12-14T06:37:15;100931.66;;;0.20;63.96
80837;BME280;70251;60.008;30.404;2023-12-14T06:39:41;100934.38;;;0.17;64.43
80837;BME280;70251;60.008;30.404;2023-12-14T06:42:07;100933.59;;;0.15;64.05
80837;BME280;70251;60.008;30.404;2023-12-14T06:44:33;100930.25;;;0.12;64.27
80837;BME280;70251;60.008;30.404;2023-12-14T06:46:58;100942.66;;;0.08;64.43
80837;BME280;70251;60.008;30.404;2023-12-14T06:49:25;100945.47;;;0.04;64.40
80837;BME280;70251;60.008;30.404;2023-12-14T06:51:51;100938.69;;;-0.02;64.03
80837;BME280;70251;60.008;30.404;2023-12-14T06:54:16;100946.63;;;-0.04;64.13
80837;BME280;70251;60.008;30.404;2023-12-14T06:56:42;100943.03;;;-0.01;64.22
80837;BME280;70251;60.008;30.404;2023-12-14T06:59:08;100947.47;;;-0.03;63.98
80837;BME280;70251;60.008;30.404;2023-12-14T07:01:34;100951.00;;;-0.04;64.51
80837;BME280;70251;60.008;30.404;2023-12-14T07:03:59;100956.22;;;-0.03;64.10
80837;BME280;70251;60.008;30.404;2023-12-14T07:06:25;100959.81;;;-0.05;64.16
80837;BME280;70251;60.008;30.404;2023-12-14T07:08:51;100960.69;;;-0.06;64.07
80837;BME280;70251;60.008;30.404;2023-12-14T07:11:16;100967.00;;;-0.10;63.94
80837;BME280;70251;60.008;30.404;2023-12-14T07:13:43;100956.66;;;-0.13;64.68
80837;BME280;70251;60.008;30.404;2023-12-14T07:16:11;100962.59;;;-0.10;64.31
80837;BME280;70251;60.008;30.404;2023-12-14T07:18:39;100970.59;;;-0.13;64.36
80837;BME280;70251;60.008;30.404;2023-12-14T07:21:05;100974.25;;;-0.17;64.51
80837;BME280;70251;60.008;30.404;2023-12-14T07:23:31;100974.31;;;-0.18;64.38
80837;BME280;70251;60.008;30.404;2023-12-14T07:25:57;100968.16;;;-0.17;64.67
80837;BME280;70251;60.008;30.404;2023-12-14T07:28:23;100970.72;;;-0.16;64.04
80837;BME280;70251;60.008;30.404;2023-12-14T07:30:49;100976.03;;;-0.17;64.53
80837;BME280;70251;60.008;30.404;2023-12-14T07:33:15;100979.44;;;-0.15;64.39
80837;BME280;70251;60.008;30.404;2023-12-14T07:35:41;100980.09;;;-0.10;63.65
80837;BME280;70251;60.008;30.404;2023-12-14T07:38:08;100975.66;;;-0.08;63.88
80837;BME280;70251;60.008;30.404;2023-12-14T07:40:34;100971.38;;;-0.11;64.38
80837;BME280;70251;60.008;30.404;2023-12-14T07:43:00;100980.88;;;-0.08;63.92
80837;BME280;70251;60.008;30.404;2023-12-14T07:45:25;100975.66;;;-0.08;64.27
80837;BME280;70251;60.008;30.404;2023-12-14T07:47:51;100976.56;;;-0.09;63.60
80837;BME280;70251;60.008;30.404;2023-12-14T07:50:17;100982.69;;;-0.09;64.22
80837;BME280;70251;60.008;30.404;2023-12-14T07:52:42;100979.31;;;-0.12;64.16
80837;BME280;70251;60.008;30.404;2023-12-14T07:55:08;100976.69;;;-0.12;64.56
80837;BME280;70251;60.008;30.404;2023-12-14T07:57:34;100981.81;;;-0.09;64.15
80837;BME280;70251;60.008;30.404;2023-12-14T08:00:00;100986.13;;;-0.08;64.03
80837;BME280;70251;60.008;30.404;2023-12-14T08:02:26;100991.25;;;-0.05;64.04
80837;BME280;70251;60.008;30.404;2023-12-14T08:04:52;100991.13;;;-0.02;63.68
80837;BME280;70251;60.008;30.404;2023-12-14T08:07:18;100997.06;;;0.03;63.92
80837;BME280;70251;60.008;30.404;2023-12-14T08:09:44;100995.22;;;0.05;64.19
80837;BME280;70251;60.008;30.404;2023-12-14T08:12:09;101000.34;;;0.08;64.16
80837;BME280;70251;60.008;30.404;2023-12-14T08:14:35;101009.06;;;0.09;63.59
80837;BME280;70251;60.008;30.404;2023-12-14T08:17:02;101008.22;;;0.08;63.28
80837;BME280;70251;60.008;30.404;2023-12-14T08:19:28;101007.34;;;0.08;63.61
80837;BME280;70251;60.008;30.404;2023-12-14T08:21:54;100999.56;;;0.06;64.05
80837;BME280;70251;60.008;30.404;2023-12-14T08:24:20;101007.34;;;0.08;63.72
80837;BME280;70251;60.008;30.404;2023-12-14T08:26:45;101007.25;;;0.11;63.75
80837;BME280;70251;60.008;30.404;2023-12-14T08:29:11;101016.13;;;0.07;64.01
80837;BME280;70251;60.008;30.404;2023-12-14T08:31:37;101011.88;;;0.04;63.66
80837;BME280;70251;60.008;30.404;2023-12-14T08:34:02;101019.78;;;0.03;64.05
80837;BME280;70251;60.008;30.404;2023-12-14T08:36:29;101022.47;;;0.01;63.73
80837;BME280;70251;60.008;30.404;2023-12-14T08:38:55;101012.84;;;0.02;63.78
80837;BME280;70251;60.008;30.404;2023-12-14T08:41:21;101025.22;;;-0.02;63.98
80837;BME280;70251;60.008;30.404;2023-12-14T08:43:47;101027.78;;;-0.01;63.82
80837;BME280;70251;60.008;30.404;2023-12-14T08:46:12;101020.66;;;0.03;64.03
80837;BME280;70251;60.008;30.404;2023-12-14T08:48:38;101029.47;;;0.00;64.03
80837;BME280;70251;60.008;30.404;2023-12-14T08:51:05;101030.34;;;0.01;63.27
80837;BME280;70251;60.008;30.404;2023-12-14T08:53:30;101026.03;;;0.00;63.56
80837;BME280;70251;60.008;30.404;2023-12-14T08:55:56;101026.75;;;0.04;63.85
80837;BME280;70251;60.008;30.404;2023-12-14T08:58:22;101024.84;;;0.07;64.07
80837;BME280;70251;60.008;30.404;2023-12-14T09:00:48;101036.28;;;0.06;63.83
80837;BME280;70251;60.008;30.404;2023-12-14T09:03:19;101024.00;;;0.07;63.49
80837;BME280;70251;60.008;30.404;2023-12-14T09:05:45;101030.88;;;0.09;63.79
80837;BME280;70251;60.008;30.404;2023-12-14T09:08:11;101027.47;;;0.07;63.79
80837;BME280;70251;60.008;30.404;2023-12-14T09:10:38;101030.03;;;0.09;63.32
80837;BME280;70251;60.008;30.404;2023-12-14T09:13:04;101024.84;;;0.07;63.95
80837;BME280;70251;60.008;30.404;2023-12-14T09:15:31;101022.22;;;0.07;63.93
80837;BME280;70251;60.008;30.404;2023-12-14T09:17:57;101030.00;;;0.10;63.53
80837;BME280;70251;60.008;30.404;2023-12-14T09:20:23;101029.06;;;0.11;63.44
80837;BME280;70251;60.008;30.404;2023-12-14T09:22:48;101025.66;;;0.09;63.19
80837;BME280;70251;60.008;30.404;2023-12-14T09:25:15;101029.06;;;0.11;63.63
80837;BME280;70251;60.008;30.404;2023-12-14T09:27:41;101023.69;;;0.14;63.80
80837;BME280;70251;60.008;30.404;2023-12-14T09:30:07;101028.81;;;0.17;63.56
80837;BME280;70251;60.008;30.404;2023-12-14T09:32:33;101019.25;;;0.16;63.82
80837;BME280;70251;60.008;30.404;2023-12-14T09:34:59;101020.16;;;0.15;63.11
80837;BME280;70251;60.008;30.404;2023-12-14T09:37:25;101022.66;;;0.18;63.26
80837;BME280;70251;60.008;30.404;2023-12-14T09:39:51;101028.63;;;0.22;63.08
80837;BME280;70251;60.008;30.404;2023-12-14T09:42:19;101025.28;;;0.18;63.33
80837;BME280;70251;60.008;30.404;2023-12-14T09:44:51;101023.44;;;0.20;63.37
80837;BME280;70251;60.008;30.404;2023-12-14T09:47:17;101022.56;;;0.21;63.37
80837;BME280;70251;60.008;30.404;2023-12-14T09:49:44;101026.78;;;0.24;63.55
80837;BME280;70251;60.008;30.404;2023-12-14T09:52:11;101022.47;;;0.23;63.31
80837;BME280;70251;60.008;30.404;2023-12-14T09:54:37;101023.34;;;0.23;63.07
80837;BME280;70251;60.008;30.404;2023-12-14T09:57:03;101026.00;;;0.22;63.05
80837;BME280;70251;60.008;30.404;2023-12-14T09:59:29;101027.66;;;0.24;62.89
80837;BME280;70251;60.008;30.404;2023-12-14T10:02:09;101029.13;;;0.31;63.07
80837;BME280;70251;60.008;30.404;2023-12-14T10:04:35;101030.63;;;0.37;63.05
80837;BME280;70251;60.008;30.404;2023-12-14T10:07:01;101034.97;;;0.38;62.64
80837;BME280;70251;60.008;30.404;2023-12-14T10:09:33;101031.50;;;0.37;62.55
80837;BME280;70251;60.008;30.404;2023-12-14T10:12:06;101042.00;;;0.37;62.76
80837;BME280;70251;60.008;30.404;2023-12-14T10:14:33;101041.13;;;0.37;62.69
80837;BME280;70251;60.008;30.404;2023-12-14T10:17:14;101043.44;;;0.44;62.78
80837;BME280;70251;60.008;30.404;2023-12-14T10:19:44;101041.34;;;0.52;62.91
80837;BME280;70251;60.008;30.404;2023-12-14T10:22:11;101039.44;;;0.56;62.61
80837;BME280;70251;60.008;30.404;2023-12-14T10:24:36;101040.31;;;0.56;62.28
80837;BME280;70251;60.008;30.404;2023-12-14T10:27:08;101044.66;;;0.57;62.65
80837;BME280;70251;60.008;30.404;2023-12-14T10:29:34;101036.19;;;0.51;62.64
80837;BME280;70251;60.008;30.404;2023-12-14T10:32:03;101033.47;;;0.52;62.76
80837;BME280;70251;60.008;30.404;2023-12-14T10:34:31;101032.69;;;0.50;62.39
80837;BME280;70251;60.008;30.404;2023-12-14T10:36:57;101029.47;;;0.44;62.55
80837;BME280;70251;60.008;30.404;2023-12-14T10:39:24;101033.84;;;0.43;62.68
80837;BME280;70251;60.008;30.404;2023-12-14T10:41:52;101035.84;;;0.38;62.44
80837;BME280;70251;60.008;30.404;2023-12-14T10:44:21;101031.41;;;0.39;62.53
80837;BME280;70251;60.008;30.404;2023-12-14T10:46:55;101028.88;;;0.37;62.96
80837;BME280;70251;60.008;30.404;2023-12-14T10:49:25;101022.84;;;0.35;62.43
80837;BME280;70251;60.008;30.404;2023-12-14T10:51:57;101019.41;;;0.33;62.73
80837;BME280;70251;60.008;30.404;2023-12-14T10:54:25;101032.53;;;0.33;62.63
80837;BME280;70251;60.008;30.404;2023-12-14T10:56:56;101021.25;;;0.31;62.75
80837;BME280;70251;60.008;30.404;2023-12-14T10:59:24;101027.59;;;0.26;62.87
80837;BME280;70251;60.008;30.404;2023-12-14T11:01:55;101025.03;;;0.24;62.91
80837;BME280;70251;60.008;30.404;2023-12-14T11:04:22;101034.00;;;0.19;63.07
80837;BME280;70251;60.008;30.404;2023-12-14T11:06:48;101033.25;;;0.15;62.86
80837;BME280;70251;60.008;30.404;2023-12-14T11:09:17;101028.88;;;0.16;62.70
80837;BME280;70251;60.008;30.404;2023-12-14T11:14:16;101035.66;;;0.21;62.85
80837;BME280;70251;60.008;30.404;2023-12-14T11:16:44;101031.25;;;0.22;63.20
80837;BME280;70251;60.008;30.404;2023-12-14T11:19:32;101036.31;;;0.26;62.29
80837;BME280;70251;60.008;30.404;2023-12-14T11:22:10;101039.06;;;0.23;62.44
80837;BME280;70251;60.008;30.404;2023-12-14T11:24:41;101032.19;;;0.21;62.81
80837;BME280;70251;60.008;30.404;2023-12-14T11:27:08;101039.19;;;0.20;62.98
80837;BME280;70251;60.008;30.404;2023-12-14T11:29:38;101044.44;;;0.20;62.92
80837;BME280;70251;60.008;30.404;2023-12-14T11:32:07;101045.28;;;0.21;62.89
80837;BME280;70251;60.008;30.404;2023-12-14T11:34:33;101048.09;;;0.16;62.13
80837;BME280;70251;60.008;30.404;2023-12-14T11:36:59;101051.75;;;0.12;63.12
80837;BME280;70251;60.008;30.404;2023-12-14T11:39:31;101045.59;;;0.13;62.73
80837;BME280;70251;60.008;30.404;2023-12-14T11:42:04;101049.06;;;0.14;62.68
80837;BME280;70251;60.008;30.404;2023-12-14T11:44:32;101050.91;;;0.12;62.84
80837;BME280;70251;60.008;30.404;2023-12-14T11:46:58;101047.41;;;0.11;62.77
80837;BME280;70251;60.008;30.404;2023-12-14T11:49:25;101055.34;;;0.10;62.96
80837;BME280;70251;60.008;30.404;2023-12-14T11:51:52;101051.06;;;0.07;62.55
80837;BME280;70251;60.008;30.404;2023-12-14T11:54:19;101057.19;;;0.08;62.45
80837;BME280;70251;60.008;30.404;2023-12-14T11:56:47;101058.03;;;0.08;62.51
80837;BME280;70251;60.008;30.404;2023-12-14T11:59:17;101064.97;;;0.09;63.11
80837;BME280;70251;60.008;30.404;2023-12-14T12:01:57;101063.94;;;0.13;62.75
80837;BME280;70251;60.008;30.404;2023-12-14T12:04:24;101069.31;;;0.10;62.47
80837;BME280;70251;60.008;30.404;2023-12-14T12:06:50;101074.94;;;0.01;62.47
80837;BME280;70251;60.008;30.404;2023-12-14T12:09:38;101073.34;;;-0.03;62.71
80837;BME280;70251;60.008;30.404;2023-12-14T12:12:07;101072.66;;;-0.08;63.09
80837;BME280;70251;60.008;30.404;2023-12-14T12:14:34;101069.22;;;-0.10;63.36
80837;BME280;70251;60.008;30.404;2023-12-14T12:17:04;101073.63;;;-0.11;63.35
80837;BME280;70251;60.008;30.404;2023-12-14T12:19:34;101070.09;;;-0.10;62.95
80837;BME280;70251;60.008;30.404;2023-12-14T12:22:01;101083.91;;;-0.05;63.40
80837;BME280;70251;60.008;30.404;2023-12-14T12:24:27;101079.63;;;-0.07;62.65
80837;BME280;70251;60.008;30.404;2023-12-14T12:26:54;101077.09;;;-0.10;63.02
80837;BME280;70251;60.008;30.404;2023-12-14T12:29:20;101083.28;;;-0.11;63.42
80837;BME280;70251;60.008;30.404;2023-12-14T12:31:45;101083.09;;;-0.07;62.93
80837;BME280;70251;60.008;30.404;2023-12-14T12:34:12;101083.19;;;-0.10;62.85
80837;BME280;70251;60.008;30.404;2023-12-14T12:36:38;101089.56;;;-0.15;62.99
80837;BME280;70251;60.008;30.404;2023-12-14T12:39:04;101100.13;;;-0.18;63.01
80837;BME280;70251;60.008;30.404;2023-12-14T12:41:38;101097.41;;;-0.15;63.35
80837;BME280;70251;60.008;30.404;2023-12-14T12:44:13;101099.00;;;-0.11;63.15
80837;BME280;70251;60.008;30.404;2023-12-14T12:46:43;101103.28;;;-0.09;63.41
80837;BME280;70251;60.008;30.404;2023-12-14T12:49:12;101082.56;;;-0.16;62.85